Time;durP1;ratioP1;P1;durP2;ratioP2;P2;SDS_P1;SDS_P2;PMS_P1;PMS_P2;Temp;Humidity;BMP_temperature;BMP_pressure;BME280_temperature;BME280_humidity;BME280_pressure;Samples;Min_cycle;Max_cycle;Signal;HPM_P1;HPM_P2
2023/01/16 00:01:32;;;;;;;21.10;19.00;;;;;;;2.52;74.82;94841.72;5059531;28;20532;-72
2023/01/16 00:04:00;;;;;;;19.17;17.27;;;;;;;2.57;74.87;94821.75;5060486;28;20194;-72
2023/01/16 00:06:28;;;;;;;19.85;17.95;;;;;;;2.56;75.21;94823.66;5059599;28;20209;-72
2023/01/16 00:08:56;;;;;;;20.45;18.45;;;;;;;2.61;74.67;94817.28;5059821;28;20209;-72
2023/01/16 00:11:26;;;;;;;20.92;18.77;;;;;;;2.60;75.07;94830.09;5059405;28;20205;-72
2023/01/16 00:13:55;;;;;;;19.48;17.55;;;;;;;2.60;75.19;94824.66;5059405;28;20189;-72
2023/01/16 00:16:23;;;;;;;20.00;18.08;;;;;;;2.58;75.23;94820.66;5059641;28;20220;-72
2023/01/16 00:18:51;;;;;;;21.15;18.95;;;;;;;2.59;74.81;94817.59;5059575;28;20207;-72
2023/01/16 00:21:20;;;;;;;22.52;20.10;;;;;;;2.57;74.42;94808.94;5059051;28;20208;-72
2023/01/16 00:23:48;;;;;;;23.33;20.83;;;;;;;2.51;74.08;94812.91;5060031;28;20596;-72
2023/01/16 00:26:16;;;;;;;21.50;19.10;;;;;;;2.53;73.95;94807.94;5059735;28;20223;-72
2023/01/16 00:28:48;;;;;;;21.85;19.63;;;;;;;2.55;73.78;94816.63;5059490;28;20197;-72
2023/01/16 00:31:17;;;;;;;22.83;20.42;;;;;;;2.52;73.53;94791.94;5058985;28;20201;-72
2023/01/16 00:33:46;;;;;;;25.35;22.77;;;;;;;2.38;73.12;94806.38;5076781;28;20209;-72
2023/01/16 00:36:13;;;;;;;23.40;20.80;;;;;;;2.36;73.29;94803.19;5076737;28;20212;-72
2023/01/16 00:38:41;;;;;;;22.25;19.98;;;;;;;2.43;74.47;94805.44;5076901;28;20201;-72
2023/01/16 00:41:10;;;;;;;23.00;20.50;;;;;;;2.44;73.83;94788.03;5059114;28;20201;-72
2023/01/16 00:43:38;;;;;;;22.98;20.58;;;;;;;2.45;74.10;94791.56;5059453;28;20205;-72
2023/01/16 00:46:07;;;;;;;22.73;20.42;;;;;;;2.38;74.12;94790.06;5076692;28;20223;-72
2023/01/16 00:48:34;;;;;;;21.35;19.15;;;;;;;2.39;74.58;94790.84;5076428;28;20211;-72
2023/01/16 00:51:02;;;;;;;21.52;19.30;;;;;;;2.44;74.17;94796.19;5058478;28;20214;-72
2023/01/16 00:53:30;;;;;;;19.60;17.70;;;;;;;2.47;75.01;94792.03;5058823;28;20200;-72
2023/01/16 00:55:58;;;;;;;20.13;18.13;;;;;;;2.53;74.90;94788.88;5059293;28;20208;-72
2023/01/16 00:58:26;;;;;;;21.67;19.10;;;;;;;2.51;73.85;94793.03;5073659;28;20232;-72
2023/01/16 01:00:54;;;;;;;21.38;19.27;;;;;;;2.46;73.86;94782.25;5096669;28;20188;-72
2023/01/16 01:03:24;;;;;;;21.65;19.42;;;;;;;2.38;73.77;94784.59;5096560;28;20211;-72
2023/01/16 01:05:54;;;;;;;21.55;19.35;;;;;;;2.36;73.74;94786.84;5079187;28;20592;-72
2023/01/16 01:08:21;;;;;;;21.50;19.40;;;;;;;2.42;73.84;94785.59;5096650;28;20254;-72
2023/01/16 01:10:48;;;;;;;21.30;19.10;;;;;;;2.39;73.69;94780.75;5078852;28;20564;-72
2023/01/16 01:13:16;;;;;;;19.83;17.83;;;;;;;2.50;74.22;94791.41;5078598;28;20196;-72
2023/01/16 01:15:45;;;;;;;19.75;17.85;;;;;;;2.49;74.18;94787.91;5079440;28;20208;-72
2023/01/16 01:18:13;;;;;;;20.40;18.40;;;;;;;2.51;73.78;94780.22;5078679;28;20223;-71
2023/01/16 01:20:44;;;;;;;20.83;18.83;;;;;;;2.43;73.08;94775.50;5078441;28;20204;-71
2023/01/16 01:23:12;;;;;;;20.25;18.25;;;;;;;2.32;73.33;94776.84;5096195;28;20196;-71
2023/01/16 01:25:39;;;;;;;21.42;19.33;;;;;;;2.27;73.66;94768.81;5096565;28;20658;-71
2023/01/16 01:28:08;;;;;;;20.27;18.27;;;;;;;2.29;73.78;94761.97;5096309;28;20262;-71
2023/01/16 01:30:36;;;;;;;21.10;19.02;;;;;;;2.23;73.28;94748.78;5078298;28;20200;-72
2023/01/16 01:33:04;;;;;;;20.20;18.25;;;;;;;2.16;73.74;94754.66;5077814;28;20204;-71
2023/01/16 01:35:34;;;;;;;20.13;18.20;;;;;;;2.27;74.10;94760.66;5078369;28;20269;-71
2023/01/16 01:38:04;;;;;;;19.88;17.98;;;;;;;2.32;74.05;94744.19;5096061;28;20213;-72
2023/01/16 01:40:31;;;;;;;19.77;17.98;;;;;;;2.30;74.15;94747.25;5078383;28;20211;-71
2023/01/16 01:42:59;;;;;;;19.20;17.30;;;;;;;2.37;74.55;94749.53;5095792;28;20188;-71
2023/01/16 01:45:29;;;;;;;18.48;16.83;;;;;;;2.48;74.74;94750.91;5095791;28;20211;-71
2023/01/16 01:48:01;;;;;;;18.48;16.67;;;;;;;2.51;75.00;94760.38;5078187;28;20258;-71
2023/01/16 01:50:39;;;;;;;18.15;16.55;;;;;;;2.55;74.97;94745.03;5095745;28;20200;-71
2023/01/16 01:53:14;;;;;;;17.58;15.98;;;;;;;2.54;74.90;94744.22;5077987;28;20200;-71
2023/01/16 01:55:46;;;;;;;18.40;16.70;;;;;;;2.51;74.25;94747.56;5095726;28;20192;-71
2023/01/16 01:58:20;;;;;;;18.02;16.33;;;;;;;2.38;74.17;94742.97;5077518;28;20236;-71
2023/01/16 02:00:48;;;;;;;18.45;16.65;;;;;;;2.29;73.93;94742.13;5095415;28;20201;-71
2023/01/16 02:03:18;;;;;;;18.38;16.67;;;;;;;2.30;74.09;94730.13;5077793;28;20269;-71
2023/01/16 02:05:49;;;;;;;19.05;17.15;;;;;;;2.35;74.38;94736.22;5095937;28;20196;-71
2023/01/16 02:08:20;;;;;;;18.02;16.33;;;;;;;2.38;74.28;94732.09;5077527;28;20294;-71
2023/01/16 02:10:50;;;;;;;17.98;16.30;;;;;;;2.44;73.62;94743.66;5077563;28;20212;-71
2023/01/16 02:13:18;;;;;;;17.80;16.10;;;;;;;2.38;73.44;94741.06;5095302;28;20196;-71
2023/01/16 02:21:31;;;;;;;17.45;15.77;;;;;;;2.47;73.43;94726.69;5077135;28;20204;-72
2023/01/16 02:24:36;;;;;;;18.13;16.42;;;;;;;2.52;73.64;94727.38;5077731;28;20203;-72
2023/01/16 02:27:29;;;;;;;17.92;16.25;;;;;;;2.55;73.64;94723.25;5045582;28;20291;-72
2023/01/16 02:30:28;;;;;;;17.80;16.10;;;;;;;2.52;73.54;94726.59;5095146;28;20208;-72
2023/01/16 02:33:06;;;;;;;18.35;16.65;;;;;;;2.50;73.78;94718.72;5094914;28;20245;-71
2023/01/16 02:35:59;;;;;;;17.23;15.77;;;;;;;2.44;72.97;94706.38;5077162;28;20605;-71
2023/01/16 02:38:37;;;;;;;17.13;15.60;;;;;;;2.41;73.22;94709.69;5095102;28;20219;-72
2023/01/16 02:41:14;;;;;;;17.73;16.13;;;;;;;2.33;73.43;94705.81;5077194;28;20212;-72
2023/01/16 02:43:48;;;;;;;17.65;15.95;;;;;;;2.34;73.68;94699.25;5095222;28;20282;-72
2023/01/16 02:46:22;;;;;;;17.73;16.15;;;;;;;2.42;73.82;94703.13;5095267;28;20242;-72
2023/01/16 02:48:57;;;;;;;18.85;17.15;;;;;;;2.42;72.75;94714.03;5077451;28;20200;-72
2023/01/16 02:51:32;;;;;;;18.67;16.98;;;;;;;2.36;72.84;94693.47;5094787;28;20730;-72
2023/01/16 02:54:10;;;;;;;18.70;17.05;;;;;;;2.32;72.84;94695.22;5095027;28;20196;-71
2023/01/16 02:56:42;;;;;;;18.70;17.00;;;;;;;2.19;72.84;94687.94;5077422;28;20204;-71
2023/01/16 02:59:11;;;;;;;18.45;16.73;;;;;;;2.15;73.58;94698.63;5074282;28;20217;-71
2023/01/16 03:01:40;;;;;;;17.70;16.10;;;;;;;2.13;74.16;94704.38;5074902;28;20204;-72
2023/01/16 03:04:41;;;;;;;19.80;17.90;;;;;;;2.26;74.01;94702.72;5074828;28;20197;-72
2023/01/16 03:07:36;;;;;;;19.95;18.10;;;;;;;2.27;74.28;94696.16;5074590;28;20519;-71
2023/01/16 03:10:17;;;;;;;19.77;17.98;;;;;;;2.30;74.24;94686.56;5074909;28;20204;-71
2023/01/16 03:12:53;;;;;;;20.20;18.40;;;;;;;2.31;73.33;94680.81;5075541;28;20189;-71
2023/01/16 03:15:28;;;;;;;19.88;18.10;;;;;;;2.33;73.22;94680.50;5078407;28;20192;-71
2023/01/16 03:18:06;;;;;;;20.15;18.35;;;;;;;2.32;73.77;94681.59;5078094;28;20296;-71
2023/01/16 03:20:42;;;;;;;19.63;17.75;;;;;;;2.27;73.88;94671.66;5060765;28;20203;-71
2023/01/16 03:23:14;;;;;;;19.10;17.45;;;;;;;2.26;73.70;94678.22;5078282;28;20580;-71
2023/01/16 03:25:46;;;;;;;19.27;17.48;;;;;;;2.28;74.42;94667.00;5061140;28;20201;-71
2023/01/16 03:28:21;;;;;;;19.90;17.92;;;;;;;2.36;75.04;94664.38;5060436;28;20212;-71
2023/01/16 03:30:53;;;;;;;19.23;17.52;;;;;;;2.38;74.84;94656.69;5077836;28;20814;-71
2023/01/16 03:33:32;;;;;;;21.45;19.35;;;;;;;2.44;75.51;94660.09;5077830;28;20199;-71
2023/01/16 03:36:07;;;;;;;21.40;19.27;;;;;;;2.46;75.17;94648.88;5078050;28;20200;-71
2023/01/16 03:38:34;;;;;;;21.85;19.65;;;;;;;2.49;75.67;94645.53;5060508;28;20565;-71
2023/01/16 03:41:04;;;;;;;23.80;21.30;;;;;;;2.51;76.25;94641.41;5077958;28;20208;-71
2023/01/16 03:43:35;;;;;;;22.30;20.05;;;;;;;2.50;75.83;94637.03;5077977;28;20197;-71
2023/01/16 03:46:08;;;;;;;21.67;19.40;;;;;;;2.56;75.84;94635.81;5078016;28;20197;-71
2023/01/16 03:48:39;;;;;;;22.05;19.85;;;;;;;2.54;76.30;94638.06;5060392;28;20205;-71
2023/01/16 03:51:13;;;;;;;20.58;18.50;;;;;;;2.51;76.29;94629.69;5077520;28;20578;-71
2023/01/16 03:53:43;;;;;;;22.50;19.80;;;;;;;2.45;76.77;94631.75;5077687;28;20202;-72
2023/01/16 03:56:18;;;;;;;22.52;20.20;;;;;;;2.47;76.22;94629.53;5060501;28;20201;-72
2023/01/16 03:58:47;;;;;;;23.23;20.50;;;;;;;2.49;75.99;94626.47;5094577;28;20244;-72
2023/01/16 04:01:24;;;;;;;23.05;20.30;;;;;;;2.54;76.25;94632.59;5097585;28;20192;-71
2023/01/16 04:03:58;;;;;;;22.98;20.55;;;;;;;2.58;76.48;94630.06;5097826;28;20199;-71
2023/01/16 04:06:34;;;;;;;23.13;20.70;;;;;;;2.52;76.18;94625.84;5097950;28;20208;-74
2023/01/16 04:09:03;;;;;;;22.00;19.70;;;;;;;2.53;76.43;94622.81;5079849;28;20210;-74
2023/01/16 04:11:32;;;;;;;24.13;21.52;;;;;;;2.52;76.46;94623.13;5098030;28;20196;-74
2023/01/16 04:14:00;;;;;;;22.95;20.40;;;;;;;2.47;76.81;94628.69;5080291;28;20273;-74
2023/01/16 04:16:30;;;;;;;22.98;20.60;;;;;;;2.49;76.88;94618.31;5097750;28;20204;-74
2023/01/16 04:18:57;;;;;;;21.88;19.45;;;;;;;2.49;76.58;94619.13;5097414;28;20745;-74
2023/01/16 04:21:30;;;;;;;21.30;19.10;;;;;;;2.49;76.82;94616.38;5079867;28;20203;-74
2023/01/16 04:23:58;;;;;;;20.65;18.25;;;;;;;2.48;76.65;94614.00;5080210;28;20211;-74
2023/01/16 04:26:26;;;;;;;20.45;18.33;;;;;;;2.45;77.14;94614.63;5079866;28;20246;-74
2023/01/16 04:28:55;;;;;;;21.30;19.00;;;;;;;2.50;76.84;94619.91;5080031;28;20208;-75
2023/01/16 04:31:23;;;;;;;19.58;17.65;;;;;;;2.47;76.94;94613.19;5079947;28;20200;-75
2023/01/16 04:33:53;;;;;;;19.02;17.02;;;;;;;2.42;76.69;94605.94;5080537;28;20204;-74
2023/01/16 04:36:21;;;;;;;19.38;17.38;;;;;;;2.44;76.66;94602.13;5079497;28;20197;-74
2023/01/16 04:38:51;;;;;;;19.35;17.40;;;;;;;2.46;76.16;94595.22;5079277;28;20220;-74
2023/01/16 04:44:01;;;;;;;18.67;16.85;;;;;;;2.42;75.91;94602.41;5064336;28;20212;-74
2023/01/16 04:46:30;;;;;;;18.65;16.75;;;;;;;2.40;76.52;94596.50;5097695;28;20245;-75
2023/01/16 04:48:57;;;;;;;18.48;16.67;;;;;;;2.36;76.53;94596.31;5079909;28;20207;-74
2023/01/16 04:51:25;;;;;;;19.55;17.45;;;;;;;2.41;76.79;94600.81;5079989;28;20200;-74
2023/01/16 04:53:54;;;;;;;20.50;18.30;;;;;;;2.39;76.08;94605.75;5079310;28;20203;-75
2023/01/16 04:56:22;;;;;;;20.08;18.10;;;;;;;2.32;75.89;94595.31;5079802;28;20254;-75
2023/01/16 04:58:52;;;;;;;21.30;19.05;;;;;;;2.27;76.30;94598.19;5096754;28;20232;-74
2023/01/16 05:01:21;;;;;;;21.33;18.83;;;;;;;2.28;76.41;94596.25;5096851;28;20197;-74
2023/01/16 05:03:49;;;;;;;21.10;18.88;;;;;;;2.27;77.21;94605.53;5079664;28;20196;-74
2023/01/16 05:06:19;;;;;;;20.77;18.58;;;;;;;2.28;76.89;94598.97;5097013;28;20205;-75
2023/01/16 05:08:48;;;;;;;20.67;18.58;;;;;;;2.29;76.31;94604.13;5096360;28;20188;-72
2023/01/16 05:11:21;;;;;;;20.58;18.38;;;;;;;2.27;76.88;94597.38;5096188;28;20211;-75
2023/01/16 05:13:49;;;;;;;20.38;18.20;;;;;;;2.26;76.27;94595.78;5096351;28;20242;-75
2023/01/16 05:16:17;;;;;;;19.45;17.42;;;;;;;2.19;76.38;94584.53;5061676;28;20200;-75
2023/01/16 05:18:45;;;;;;;20.42;18.13;;;;;;;2.12;76.66;94591.22;5078553;28;20277;-76
2023/01/16 05:21:13;;;;;;;19.17;17.17;;;;;;;2.11;76.85;94583.38;5096164;28;20204;-75
2023/01/16 05:23:41;;;;;;;18.25;16.45;;;;;;;2.16;75.72;94585.97;5078494;28;20196;-75
2023/01/16 05:26:09;;;;;;;18.60;16.70;;;;;;;2.16;75.76;94585.97;5078467;28;20208;-75
2023/01/16 05:28:38;;;;;;;17.10;15.50;;;;;;;2.12;75.87;94579.53;5096275;28;20204;-75
2023/01/16 05:31:05;;;;;;;18.58;16.67;;;;;;;2.09;75.43;94567.34;5096126;28;20200;-75
2023/01/16 05:33:32;;;;;;;19.60;17.55;;;;;;;2.10;75.76;94565.44;5079002;28;20211;-75
2023/01/16 05:36:00;;;;;;;17.98;16.17;;;;;;;2.11;75.66;94556.16;5078257;28;20197;-75
2023/01/16 05:38:31;;;;;;;18.25;16.45;;;;;;;2.13;75.12;94552.00;5096007;28;20558;-75
2023/01/16 05:40:57;;;;;;;20.70;18.48;;;;;;;2.13;75.79;94556.66;5095945;28;20189;-75
2023/01/16 05:43:26;;;;;;;21.73;19.42;;;;;;;2.10;75.86;94555.34;5078163;28;20261;-75
2023/01/16 05:45:55;;;;;;;23.83;21.33;;;;;;;2.14;75.23;94569.97;5095884;28;20204;-75
2023/01/16 05:48:23;;;;;;;21.80;19.60;;;;;;;2.10;75.56;94573.59;5095621;28;20590;-75
2023/01/16 05:50:52;;;;;;;19.38;17.55;;;;;;;2.15;75.60;94568.03;5078233;28;20212;-75
2023/01/16 05:53:19;;;;;;;19.15;17.25;;;;;;;2.16;75.43;94566.91;5078063;28;20215;-75
2023/01/16 05:55:47;;;;;;;19.00;17.20;;;;;;;2.19;75.25;94560.84;5095993;28;20208;-75
2023/01/16 05:58:16;;;;;;;17.75;16.13;;;;;;;2.17;74.71;94557.63;5095383;28;20236;-75
2023/01/16 06:00:44;;;;;;;16.30;14.80;;;;;;;2.18;74.38;94553.81;5095584;28;20196;-75
2023/01/16 06:03:15;;;;;;;17.13;15.63;;;;;;;2.22;74.57;94540.38;5077927;28;20207;-75
2023/01/16 06:05:46;;;;;;;16.90;15.38;;;;;;;2.23;74.65;94542.78;5078255;28;20234;-75
2023/01/16 06:08:13;;;;;;;18.05;16.35;;;;;;;2.22;74.36;94545.81;5077807;28;20238;-75
2023/01/16 06:10:44;;;;;;;17.98;16.27;;;;;;;2.24;74.62;94543.59;5095730;28;20211;-75
2023/01/16 06:13:11;;;;;;;17.40;15.80;;;;;;;2.25;74.46;94550.63;5095370;28;20269;-75
2023/01/16 06:15:38;;;;;;;19.02;17.33;;;;;;;2.30;74.16;94531.44;5095214;28;20204;-75
2023/01/16 06:18:06;;;;;;;19.05;17.25;;;;;;;2.30;74.67;94532.25;5095527;28;20208;-75
2023/01/16 06:20:36;;;;;;;18.90;17.10;;;;;;;2.27;75.09;94527.44;5095374;28;20205;-75
2023/01/16 06:23:03;;;;;;;18.88;17.08;;;;;;;2.28;74.95;94545.34;5095612;28;20203;-75
2023/01/16 06:25:30;;;;;;;19.45;17.55;;;;;;;2.24;74.73;94555.25;5095354;28;20209;-75
2023/01/16 06:27:58;;;;;;;19.20;17.35;;;;;;;2.25;75.00;94553.34;5077749;28;20211;-75
2023/01/16 06:30:26;;;;;;;21.98;19.77;;;;;;;2.31;75.58;94557.53;5077770;28;20212;-75
2023/01/16 06:32:53;;;;;;;20.88;18.77;;;;;;;2.33;75.23;94552.59;5095357;28;20192;-75
2023/01/16 06:35:21;;;;;;;22.48;20.20;;;;;;;2.36;75.37;94569.09;5077394;28;20212;-75
2023/01/16 06:37:53;;;;;;;23.17;20.70;;;;;;;2.45;75.55;94555.53;5077486;28;20211;-75
2023/01/16 06:40:20;;;;;;;23.92;21.48;;;;;;;2.53;74.96;94562.13;5095331;28;20384;-75
2023/01/16 06:42:48;;;;;;;23.58;21.17;;;;;;;2.53;74.64;94545.78;5077408;28;20208;-75
2023/01/16 06:45:16;;;;;;;27.00;24.40;;;;;;;2.56;74.74;94542.44;5095144;28;20200;-75
2023/01/16 06:47:45;;;;;;;21.33;19.15;;;;;;;2.54;74.63;94542.75;5096193;28;20199;-75
2023/01/16 06:50:13;;;;;;;20.55;18.55;;;;;;;2.55;75.25;94524.50;5099053;28;20535;-75
2023/01/16 06:52:41;;;;;;;19.92;18.02;;;;;;;2.52;75.66;94520.47;5081320;28;20257;-75
2023/01/16 06:55:09;;;;;;;19.20;17.30;;;;;;;2.50;75.52;94552.66;5099041;28;20189;-75
2023/01/16 06:57:38;;;;;;;19.45;17.55;;;;;;;2.54;75.38;94547.38;5099185;28;20248;-75
2023/01/16 07:00:07;;;;;;;20.13;18.23;;;;;;;2.60;75.75;94548.84;5081238;28;20220;-74
2023/01/16 07:02:39;;;;;;;24.33;21.98;;;;;;;2.62;75.53;94546.63;5081237;28;20196;-74
2023/01/16 07:05:08;;;;;;;26.98;24.25;;;;;;;2.69;75.31;94538.81;5098908;28;20192;-74
2023/01/16 07:07:37;;;;;;;28.30;25.55;;;;;;;2.70;75.47;94543.13;5081450;28;20208;-75
2023/01/16 07:10:05;;;;;;;29.45;26.45;;;;;;;2.67;75.00;94545.69;5098860;28;20212;-74
2023/01/16 07:12:35;;;;;;;36.15;32.58;;;;;;;2.65;75.14;94543.25;5081055;28;20265;-75
2023/01/16 07:23:22;;;;;;;30.90;27.73;;;;;;;2.72;75.88;94538.16;5098580;28;20680;-75
2023/01/16 07:25:51;;;;;;;23.85;21.42;;;;;;;2.71;76.06;94541.19;5081168;28;20212;-75
2023/01/16 07:28:20;;;;;;;25.88;23.15;;;;;;;2.72;75.31;94537.34;5080893;28;20211;-75
2023/01/16 07:30:48;;;;;;;27.48;24.65;;;;;;;2.72;75.23;94537.34;5098606;28;20204;-75
2023/01/16 07:33:18;;;;;;;24.63;21.98;;;;;;;2.72;75.23;94526.47;5080660;28;20188;-75
2023/01/16 07:35:46;;;;;;;24.70;22.10;;;;;;;2.78;75.55;94522.47;5081189;28;20205;-75
2023/01/16 07:38:14;;;;;;;24.95;22.35;;;;;;;2.76;75.67;94519.25;5098383;28;20203;-75
2023/01/16 07:40:41;;;;;;;26.25;23.45;;;;;;;2.80;75.37;94514.81;5080504;28;20269;-75
2023/01/16 07:43:09;;;;;;;26.40;23.60;;;;;;;2.84;75.09;94522.03;5098227;28;20203;-75
2023/01/16 07:45:38;;;;;;;25.60;22.98;;;;;;;2.87;75.17;94518.66;5081387;28;20203;-75
2023/01/16 07:48:07;;;;;;;29.92;26.73;;;;;;;2.91;75.71;94515.31;5080902;28;20192;-75
2023/01/16 07:50:35;;;;;;;28.95;26.05;;;;;;;2.94;75.15;94504.59;5081022;28;20208;-75
2023/01/16 07:53:02;;;;;;;29.00;26.08;;;;;;;2.87;74.96;94504.25;5064073;28;20207;-75
2023/01/16 07:55:30;;;;;;;29.38;26.30;;;;;;;2.87;75.12;94485.97;5098572;28;20189;-75
2023/01/16 07:57:59;;;;;;;30.02;26.83;;;;;;;2.99;74.97;94481.81;5064125;28;20228;-74
2023/01/16 08:00:27;;;;;;;32.00;28.77;;;;;;;2.91;74.21;94471.72;5080822;28;20602;-74
2023/01/16 08:02:55;;;;;;;33.95;30.42;;;;;;;2.91;75.01;94477.97;5080639;28;20200;-75
2023/01/16 08:05:23;;;;;;;32.60;29.30;;;;;;;2.91;75.44;94482.63;5079947;28;20203;-75
2023/01/16 08:07:51;;;;;;;32.35;28.98;;;;;;;3.01;75.39;94490.47;5097668;28;20211;-75
2023/01/16 08:10:18;;;;;;;33.67;30.38;;;;;;;3.10;75.60;94494.00;5080459;28;20200;-75
2023/01/16 08:12:46;;;;;;;36.78;32.88;;;;;;;3.13;74.90;94493.38;5080199;28;20670;-75
2023/01/16 08:15:15;;;;;;;38.13;33.00;;;;;;;3.13;74.84;94509.72;5080041;28;20192;-75
2023/01/16 08:17:43;;;;;;;34.10;30.35;;;;;;;3.15;74.65;94502.03;5080509;28;20208;-75
2023/01/16 08:20:14;;;;;;;37.85;33.78;;;;;;;3.18;74.78;94501.38;5080369;28;20220;-75
2023/01/16 08:22:45;;;;;;;35.58;31.88;;;;;;;3.12;74.53;94508.09;5089303;28;20193;-74
2023/01/16 08:25:14;;;;;;;35.50;31.70;;;;;;;3.11;74.43;94498.34;5079460;28;20228;-75
2023/01/16 08:27:45;;;;;;;35.70;32.00;;;;;;;3.11;74.94;94496.41;5097065;28;20208;-74
2023/01/16 08:30:14;;;;;;;35.47;31.67;;;;;;;3.24;74.70;94491.13;5097636;28;20275;-74
2023/01/16 08:32:42;;;;;;;36.83;31.55;;;;;;;3.37;74.88;94479.25;5097540;28;20222;-74
2023/01/16 08:35:11;;;;;;;37.22;33.33;;;;;;;3.40;74.67;94486.78;5096836;28;20285;-74
2023/01/16 08:37:52;;;;;;;38.67;33.92;;;;;;;3.47;74.16;94469.94;5096981;28;20197;-74
2023/01/16 08:40:24;;;;;;;41.20;36.78;;;;;;;3.55;74.19;94469.13;5079423;28;20570;-74
2023/01/16 08:51:26;;;;;;;57.85;51.50;;;;;;;3.49;73.76;94468.50;5096553;28;20546;-74
2023/01/16 08:53:56;;;;;;;44.85;39.67;;;;;;;3.51;74.46;94468.19;5079458;28;20208;-74
2023/01/16 08:56:25;;;;;;;47.00;41.90;;;;;;;3.57;74.09;94470.41;5079312;28;20196;-74
2023/01/16 08:58:53;;;;;;;49.28;43.97;;;;;;;3.61;74.31;94467.84;5096273;28;20255;-74
2023/01/16 09:01:21;;;;;;;48.47;43.33;;;;;;;3.59;74.13;94460.00;5079086;28;20201;-74
2023/01/16 09:03:49;;;;;;;45.72;40.83;;;;;;;3.64;74.16;94458.22;5079484;28;20197;-74
2023/01/16 09:06:18;;;;;;;47.88;42.70;;;;;;;3.69;73.50;94461.56;5079292;28;20204;-75
2023/01/16 09:08:49;;;;;;;45.13;40.42;;;;;;;3.75;73.41;94459.50;5096730;28;20196;-75
2023/01/16 09:14:05;;;;;;;46.42;41.50;;;;;;;3.77;73.24;94447.09;5096371;28;20204;-75
2023/01/16 09:16:35;;;;;;;45.72;41.03;;;;;;;3.81;73.28;94442.63;5078748;28;20192;-75
2023/01/16 09:19:02;;;;;;;45.67;40.97;;;;;;;3.90;73.17;94439.06;5078726;28;20196;-75
2023/01/16 09:21:31;;;;;;;47.17;42.28;;;;;;;3.97;73.30;94426.53;5096727;28;20520;-75
2023/01/16 09:23:57;;;;;;;45.78;41.13;;;;;;;4.04;73.31;94418.63;5079003;28;20212;-75
2023/01/16 09:26:27;;;;;;;49.28;44.17;;;;;;;4.09;73.25;94414.91;5078210;28;20200;-75
2023/01/16 09:28:54;;;;;;;47.42;42.20;;;;;;;4.15;73.18;94427.25;5078489;28;20203;-75
2023/01/16 09:31:21;;;;;;;48.90;43.80;;;;;;;4.14;72.63;94425.66;5078409;28;20230;-75
2023/01/16 09:33:49;;;;;;;49.78;44.47;;;;;;;4.19;72.28;94411.81;5062433;28;20219;-75
2023/01/16 09:36:18;;;;;;;49.30;44.08;;;;;;;4.18;72.50;94404.78;5078177;28;20287;-75
2023/01/16 09:38:45;;;;;;;46.65;41.75;;;;;;;4.25;72.34;94409.72;5078014;28;20663;-75
2023/01/16 09:43:35;;;;;;;47.30;42.40;;;;;;;4.33;72.61;94406.13;5096180;28;20220;-75
2023/01/16 09:44:09;;;;;;;49.80;44.60;;;;;;;4.44;72.16;94401.91;5078644;28;20291;-75
2023/01/16 09:46:39;;;;;;;43.67;39.17;;;;;;;4.48;71.78;94386.44;5078430;28;20291;-75
2023/01/16 09:49:15;;;;;;;43.63;38.95;;;;;;;4.47;71.60;94386.78;5095912;28;20207;-75
2023/01/16 09:58:34;;;;;;;45.03;40.53;;;;;;;4.41;71.48;94390.84;5095814;28;20192;-75
2023/01/16 10:00:19;;;;;;;42.92;38.40;;;;;;;4.60;71.25;94374.78;5095811;28;20223;-74
2023/01/16 10:02:47;;;;;;;40.45;36.28;;;;;;;4.69;71.91;94378.28;5077917;28;20204;-75
2023/01/16 10:05:17;;;;;;;41.38;37.10;;;;;;;4.72;71.20;94368.59;5077868;28;20624;-74
2023/01/16 10:08:00;;;;;;;41.88;36.50;;;;;;;4.80;70.74;94365.81;5078392;28;20208;-75
2023/01/16 10:10:36;;;;;;;38.58;34.47;;;;;;;4.83;70.75;94365.16;5095800;28;20215;-74
2023/01/16 10:13:25;;;;;;;39.70;35.53;;;;;;;4.80;69.99;94343.16;5077740;28;20207;-74
2023/01/16 10:16:01;;;;;;;39.95;35.58;;;;;;;4.80;70.26;94338.50;5071491;28;20196;-74
2023/01/16 10:18:34;;;;;;;39.15;34.90;;;;;;;4.86;70.70;94339.09;5095026;28;20597;-75
2023/01/16 10:21:34;;;;;;;39.80;34.38;;;;;;;4.93;70.63;94322.94;5095406;28;20311;-74
2023/01/16 10:24:03;;;;;;;38.72;34.72;;;;;;;4.96;70.15;94318.75;5017657;28;20218;-75
2023/01/16 10:26:40;;;;;;;38.10;33.90;;;;;;;4.99;70.24;94323.56;5095786;28;20200;-74
2023/01/16 10:29:21;;;;;;;38.33;34.20;;;;;;;5.02;70.24;94317.41;5078377;28;20203;-75
2023/01/16 10:31:57;;;;;;;38.97;34.70;;;;;;;5.06;69.98;94301.94;5079154;28;20210;-74
2023/01/16 10:34:28;;;;;;;36.85;32.90;;;;;;;5.09;70.01;94298.53;5079768;28;20216;-74
2023/01/16 10:36:58;;;;;;;36.85;32.80;;;;;;;5.24;70.26;94308.03;5078645;28;20295;-74
2023/01/16 10:39:28;;;;;;;41.25;33.45;;;;;;;5.41;69.86;94305.13;5096158;28;20200;-74
2023/01/16 10:50:30;;;;;;;27.25;24.45;;;;;;;5.78;67.13;94264.94;5095899;28;20333;-74
2023/01/16 10:52:57;;;;;;;27.75;24.75;;;;;;;5.94;66.59;94256.06;5095954;28;20192;-75
2023/01/16 10:55:25;;;;;;;28.33;23.95;;;;;;;6.08;66.31;94250.22;5078172;28;20192;-75
2023/01/16 10:57:55;;;;;;;26.95;24.17;;;;;;;6.21;65.82;94235.38;5095859;28;20244;-75
2023/01/16 11:00:28;;;;;;;28.67;23.20;;;;;;;6.33;65.44;94223.59;5095768;28;20234;-74
2023/01/16 11:03:00;;;;;;;24.17;21.58;;;;;;;6.34;64.95;94216.97;5096508;28;20189;-75
2023/01/16 11:05:30;;;;;;;22.00;19.67;;;;;;;6.35;65.07;94219.34;5078571;28;20212;-75
2023/01/16 11:08:07;;;;;;;24.30;18.60;;;;;;;6.44;65.00;94200.06;5096293;28;20201;-75
2023/01/16 11:10:35;;;;;;;20.23;18.13;;;;;;;6.29;64.34;94207.06;5079213;28;20336;-74
2023/01/16 11:18:51;;;;;;;22.75;20.35;;;;;;;6.93;63.80;94206.09;5095480;28;20188;-75
2023/01/16 11:21:26;;;;;;;22.83;20.33;;;;;;;7.11;63.60;94214.00;5095304;28;20227;-74
2023/01/16 11:23:58;;;;;;;24.48;20.27;;;;;;;7.36;62.79;94212.72;5077824;28;20211;-74
2023/01/16 11:26:27;;;;;;;29.33;26.17;;;;;;;7.60;62.29;94211.75;5095543;28;20287;-75
2023/01/16 11:28:55;;;;;;;31.67;28.55;;;;;;;7.82;61.33;94204.81;5095867;28;20601;-74
2023/01/16 11:31:26;;;;;;;28.40;25.52;;;;;;;8.26;60.40;94185.41;5096246;28;20192;-74
2023/01/16 11:33:59;;;;;;;25.88;23.23;;;;;;;8.63;59.30;94194.06;5097015;28;20205;-74
2023/01/16 11:36:26;;;;;;;22.35;20.15;;;;;;;8.56;58.42;94191.16;5099980;28;20283;-74
2023/01/16 11:38:56;;;;;;;24.48;21.90;;;;;;;8.36;58.36;94184.84;5098797;28;20212;-75
2023/01/16 11:41:29;;;;;;;26.98;24.38;;;;;;;8.22;58.80;94184.53;5080435;28;20568;-75
2023/01/16 11:47:03;;;;;;;23.15;20.75;;;;;;;8.47;58.59;94165.09;5080649;28;20207;-74
2023/01/16 11:49:37;;;;;;;20.38;18.45;;;;;;;8.08;58.52;94156.75;5098279;28;20250;-74
2023/01/16 11:52:05;;;;;;;19.42;17.55;;;;;;;8.01;58.97;94143.66;5080734;28;20188;-74
2023/01/16 11:54:34;;;;;;;21.25;19.05;;;;;;;7.89;60.04;94130.06;5097766;28;20200;-75
2023/01/16 11:57:22;;;;;;;20.23;18.10;;;;;;;8.03;58.66;94122.16;5080011;28;20212;-75
2023/01/16 12:00:12;;;;;;;19.77;17.88;;;;;;;7.61;59.67;94120.03;5080188;28;20257;-74
2023/01/16 12:03:00;;;;;;;19.00;17.08;;;;;;;7.67;60.33;94126.84;5080421;28;20267;-74
2023/01/16 12:05:56;;;;;;;19.38;17.50;;;;;;;7.87;59.62;94116.69;5080792;28;20197;-75
2023/01/16 12:08:49;;;;;;;18.90;17.10;;;;;;;7.72;59.59;94123.03;5097895;28;20340;-75
2023/01/16 12:11:25;;;;;;;19.20;17.27;;;;;;;7.81;59.87;94120.88;5076951;28;20204;-75
2023/01/16 12:16:58;;;;;;;20.25;18.25;;;;;;;7.21;60.86;94115.56;5080049;28;20691;-74
2023/01/16 12:19:51;;;;;;;19.88;17.88;;;;;;;7.08;61.77;94107.78;5097688;28;20185;-74
2023/01/16 12:22:25;;;;;;;20.63;18.63;;;;;;;7.00;62.55;94095.84;5080084;28;20201;-74
2023/01/16 12:25:00;;;;;;;23.00;20.50;;;;;;;6.98;62.71;94098.16;5079752;28;20210;-74
2023/01/16 12:27:42;;;;;;;21.52;19.38;;;;;;;6.91;61.61;94079.56;5080271;28;20208;-75
2023/01/16 12:30:30;;;;;;;19.77;17.77;;;;;;;6.78;62.52;94083.53;5097554;28;20200;-75
2023/01/16 12:33:11;;;;;;;17.70;16.02;;;;;;;6.62;62.53;94090.97;5079524;28;20625;-75
2023/01/16 12:35:47;;;;;;;18.08;16.27;;;;;;;6.42;63.42;94098.25;5097046;28;20224;-75
2023/01/16 12:38:19;;;;;;;18.33;16.52;;;;;;;6.44;63.22;94094.03;5097335;28;20206;-74